Bookmark and Share
Track history (hours):
 

Jack Brusco

More information available from US FCC via Universal Licensing System and Coast Guard Vessel Documentation Center.

Last reported at 2014-Apr-23 09:33 UTC. Time now 2014-Apr-23 09:50 UTC.
Position N 47°59' W 122°13'.

Length 36 m; draft 5.2 m.

Type: Tug. MMSI: 3699086.

NotesDate/timePositionNaut miles runAvg speedWind from/ knotsBaromVisibWave heightAir tempDewpointWater temp
2014-Apr-23 09:33N 47°59' W 122°13'7 7.1
2014-Apr-23 08:32N 47°54' W 122°21'111.7
2014-Apr-23 08:25N 47°53' W 122°22'1112.3
2014-Apr-23 07:33N 47°42' W 122°26'111.7
2014-Apr-23 07:31N 47°42' W 122°26'7 6.9
2014-Apr-23 06:31N 47°36' W 122°22'0 0.0
2014-Apr-23 06:26N 47°36' W 122°22'0 0.0
2014-Apr-23 05:50N 47°36' W 122°22'0 0.0
2014-Apr-23 05:33N 47°36' W 122°22'0 0.0
2014-Apr-23 04:33N 47°35' W 122°22'0 0.0
2014-Apr-23 04:30N 47°35' W 122°22'0 0.1
2014-Apr-23 03:33N 47°36' W 122°22'0 0.1
2014-Apr-23 03:30N 47°36' W 122°22'0 0.3
2014-Apr-23 02:33N 47°36' W 122°22'0 1.7
2014-Apr-23 02:30N 47°36' W 122°22'0 0.2
2014-Apr-23 01:33N 47°36' W 122°22'0 0.1
2014-Apr-23 01:30N 47°36' W 122°22'0 0.0
2014-Apr-23 00:33N 47°36' W 122°22'0 0.3
2014-Apr-23 00:25N 47°36' W 122°22'0 0.0
2014-Apr-22 23:33N 47°36' W 122°22'0 0.0
2014-Apr-22 23:25N 47°36' W 122°22'0 0.0
2014-Apr-22 22:33N 47°36' W 122°22'0 0.0
2014-Apr-22 22:30N 47°36' W 122°22'6 5.8
2014-Apr-22 21:33N 47°40' W 122°27'1111.0
2014-Apr-22 20:33N 47°51' W 122°23'10 7.9
2014-Apr-22 19:14N 47°59' W 122°13'0 0.0
2014-Apr-22 18:33N 47°59' W 122°13'0 0.0
2014-Apr-22 17:33N 47°59' W 122°13'0 0.0
2014-Apr-22 16:33N 47°59' W 122°13'0 0.0
2014-Apr-22 15:30N 47°59' W 122°13'0 0.0
2014-Apr-22 14:11N 47°59' W 122°13'0 0.0
2014-Apr-22 13:33N 47°59' W 122°13'0 0.0
2014-Apr-22 12:33N 47°59' W 122°13'0 0.0
2014-Apr-22 11:33N 47°59' W 122°13'0 0.0
2014-Apr-22 10:33N 47°59' W 122°13'0 0.0
2014-Apr-22 09:33N 47°59' W 122°13'0 0.0
2014-Apr-22 08:33N 47°59' W 122°13'0 0.0
2014-Apr-22 07:33N 47°59' W 122°13'0 0.0
2014-Apr-22 06:33N 47°59' W 122°13'0 0.0
2014-Apr-22 05:33N 47°59' W 122°13'0 0.0
2014-Apr-22 04:33N 47°59' W 122°13'0 0.0
2014-Apr-22 03:33N 47°59' W 122°13'0 0.0
2014-Apr-22 02:33N 47°59' W 122°13'0 0.0
2014-Apr-22 01:33N 47°59' W 122°13'0 0.0
2014-Apr-22 00:33N 47°59' W 122°13'0 0.0
2014-Apr-21 23:33N 47°59' W 122°13'0 0.0
2014-Apr-21 22:33N 47°59' W 122°13'0 0.0
2014-Apr-21 21:33N 47°59' W 122°13'0 0.0
2014-Apr-21 20:33N 47°59' W 122°13'0 0.0
2014-Apr-21 19:33N 47°59' W 122°13'0 0.0
2014-Apr-21 18:33N 47°59' W 122°13'0 0.0
2014-Apr-21 17:33N 47°59' W 122°13'0 0.0
2014-Apr-21 16:33N 47°59' W 122°13'0 0.0
2014-Apr-21 15:33N 47°59' W 122°13'0 0.0
2014-Apr-21 14:33N 47°59' W 122°13'0 0.0
2014-Apr-21 13:33N 47°59' W 122°13'0 0.0
2014-Apr-21 12:33N 47°59' W 122°13'0 0.0
2014-Apr-21 11:30N 47°59' W 122°13'0 0.0
2014-Apr-21 10:33N 47°59' W 122°13'0 0.0
2014-Apr-21 09:31N 47°59' W 122°13'0 0.0
2014-Apr-21 08:31N 47°59' W 122°13'0 0.0
2014-Apr-21 07:33N 47°59' W 122°13'0 0.0
2014-Apr-21 06:33N 47°59' W 122°13'0 0.0
2014-Apr-21 05:33N 47°59' W 122°13'0 0.0
2014-Apr-21 04:33N 47°59' W 122°13'0 0.0
2014-Apr-21 03:33N 47°59' W 122°13'0 0.0
2014-Apr-21 02:33N 47°59' W 122°13'0 0.0
2014-Apr-21 01:33N 47°59' W 122°13'0 0.0
2014-Apr-21 00:33N 47°59' W 122°13'0 0.0
2014-Apr-20 23:33N 47°59' W 122°13'0 0.0
2014-Apr-20 22:33N 47°59' W 122°13'0 0.0
2014-Apr-20 21:33N 47°59' W 122°13'0 0.0
2014-Apr-20 20:33N 47°59' W 122°13'0 0.0
2014-Apr-20 19:33N 47°59' W 122°13'0 0.0
2014-Apr-20 18:33N 47°59' W 122°13'0 0.0
2014-Apr-20 17:33N 47°59' W 122°13'0 0.0
2014-Apr-20 16:33N 47°59' W 122°13'0 0.0
2014-Apr-20 15:33N 47°59' W 122°13'0 0.0
2014-Apr-20 14:33N 47°59' W 122°13'0 0.0
2014-Apr-20 13:33N 47°59' W 122°13'0 0.0
2014-Apr-20 12:33N 47°59' W 122°13'0 0.0
2014-Apr-20 11:33N 47°59' W 122°13'0 0.0
2014-Apr-20 10:33N 47°59' W 122°13'0 0.0
2014-Apr-20 09:33N 47°59' W 122°13'0 0.0
2014-Apr-20 08:30N 47°59' W 122°13'0 0.0
2014-Apr-20 07:33N 47°59' W 122°13'0 0.0
2014-Apr-20 06:33N 47°59' W 122°13'0 0.0
2014-Apr-20 05:33N 47°59' W 122°13'0 0.0
2014-Apr-20 04:33N 47°59' W 122°13'0 0.0
2014-Apr-20 03:32N 47°59' W 122°13'0 0.0
2014-Apr-20 02:33N 47°59' W 122°13'0 0.0
2014-Apr-20 01:33N 47°59' W 122°13'0 0.0
2014-Apr-20 00:33N 47°59' W 122°13'0 0.0
2014-Apr-19 23:33N 47°59' W 122°13'0 0.0
2014-Apr-19 22:33N 47°59' W 122°13'1 0.6
2014-Apr-19 21:33N 47°59' W 122°14'810.6
2014-Apr-19 20:49N 47°53' W 122°22'414.1
2014-Apr-19 20:33N 47°49' W 122°24'1312.8
2014-Apr-19 19:33N 47°36' W 122°23'1 5.0
2014-Apr-19 19:21N 47°36' W 122°22'0 0.0
2014-Apr-19 18:34N 47°36' W 122°22'0 0.0
2014-Apr-19 18:31N 47°36' W 122°22'0 0.0
2014-Apr-19 17:34N 47°36' W 122°22'0 0.2
2014-Apr-19 17:32N 47°36' W 122°22'2 1.7
2014-Apr-19 16:34N 47°34' W 122°21'0 1.3
2014-Apr-19 16:32N 47°34' W 122°21'2 2.0
2014-Apr-19 15:34N 47°36' W 122°22'0 1.5
2014-Apr-19 15:32N 47°36' W 122°22'2 2.3
2014-Apr-19 14:30N 47°37' W 122°25'5 5.4
2014-Apr-19 13:33N 47°42' W 122°28'7 6.6
2014-Apr-19 12:34N 47°48' W 122°28'0 7.0
2014-Apr-19 12:32N 47°49' W 122°28'7 6.8
2014-Apr-19 11:34N 47°55' W 122°30'0 6.7
2014-Apr-19 11:32N 47°55' W 122°30'24 7.1
2014-Apr-19 08:07N 48°16' W 122°48'5 9.4
2014-Apr-19 07:32N 48°21' W 122°46'10 9.7
2014-Apr-19 06:33N 48°31' W 122°45'9 9.2
2014-Apr-19 05:34N 48°40' W 122°44'10 8.5
2014-Apr-19 04:20N 48°48' W 122°55'7 9.0
2014-Apr-19 03:33N 48°51' W 123°04'8 7.9
2014-Apr-19 02:33N 48°56' W 123°13'8 7.9
2014-Apr-19 01:34N 49°02' W 123°21'7 7.3
2014-Apr-19 00:33N 49°09' W 123°23'9 8.6
2014-Apr-18 23:33N 49°17' W 123°17'1 1.5
2014-Apr-18 22:34N 49°18' W 123°15'0 0.0
2014-Apr-18 21:33N 49°18' W 123°15'0 0.0
2014-Apr-18 20:34N 49°18' W 123°15'3 3.2
2014-Apr-18 19:34N 49°18' W 123°20'2 2.0
2014-Apr-18 18:33N 49°19' W 123°23'2 1.9
2014-Apr-18 17:34N 49°19' W 123°26'3 2.9
2014-Apr-18 16:34N 49°20' W 123°21'2 1.7
2014-Apr-18 15:34N 49°19' W 123°24'5 5.0
2014-Apr-18 14:33N 49°21' W 123°31'7 7.3
2014-Apr-18 13:33N 49°23' W 123°42'7 7.4
2014-Apr-18 12:33N 49°24' W 123°53'7 6.9
2014-Apr-18 11:33N 49°27' W 124°03'7 7.4
2014-Apr-18 10:33N 49°31' W 124°12'8 7.9
2014-Apr-18 09:33N 49°34' W 124°23'7 7.4
2014-Apr-18 08:33N 49°39' W 124°33'7 7.4
2014-Apr-18 07:33N 49°43' W 124°42'7 7.4
2014-Apr-18 06:33N 49°48' W 124°51'8 7.4
2014-Apr-18 05:32N 49°52' W 125°00'7 7.5
2014-Apr-18 04:32N 49°57' W 125°09'84 4.9
2014-Apr-17 11:26N 50°43' W 126°59'6 3.5
2014-Apr-17 09:33N 50°46' W 127°08'3 3.5
2014-Apr-17 08:34N 50°48' W 127°12'4 3.5
2014-Apr-17 07:33N 50°50' W 127°17'3 3.4
2014-Apr-17 06:34N 50°52' W 127°20'5 5.2
2014-Apr-17 05:33N 50°56' W 127°27'6 5.2
2014-Apr-17 04:25N 50°59' W 127°34'4 4.6
2014-Apr-17 03:34N 51°02' W 127°39'5 4.9
2014-Apr-17 02:34N 51°05' W 127°45'5 5.0
2014-Apr-17 01:34N 51°08' W 127°51'222 6.5
2014-Apr-15 15:28N 54°17' W 131°03'  

Dump ship's entire track history

sailing weather and tide predictions

Jack Brusco — WDC3066 — position and weather